Time;durP1;ratioP1;P1;durP2;ratioP2;P2;SDS_P1;SDS_P2;PMS_P1;PMS_P2;Temp;Humidity;BMP_temperature;BMP_pressure;BME280_temperature;BME280_humidity;BME280_pressure;Samples;Min_cycle;Max_cycle;Signal;HPM_P1;HPM_P2
2024/02/02 00:00:02;;;;;;;;;;;;;;;11.44;47.39;101868.41;4933394;28;98179;-71
2024/02/02 00:02:28;;;;;;;;;;;;;;;11.43;47.49;101870.25;4935387;28;98183;-70
2024/02/02 00:04:54;;;;;;;;;;;;;;;11.42;47.49;101862.41;4950644;28;98375;-65
2024/02/02 00:07:19;;;;;;;;;;;;;;;11.42;47.42;101868.63;4934871;28;107763;-71
2024/02/02 00:09:46;;;;;;;;;;;;;;;11.42;47.43;101886.69;4917375;28;102601;-70
2024/02/02 00:12:12;;;;;;;;;;;;;;;11.41;47.48;101879.66;4947750;28;98491;-65
2024/02/02 00:14:38;;;;;;;;;;;;;;;11.40;47.37;101881.56;4922069;28;100046;-66
2024/02/02 00:17:07;;;;;;;;;;;;;;;11.40;47.51;101883.44;4921786;28;106498;-65
2024/02/02 00:19:34;;;;;;;;;;;;;;;11.40;47.42;101875.34;4934324;28;101355;-65
2024/02/02 00:22:00;;;;;;;;;;;;;;;11.39;47.21;101871.78;4921154;28;98218;-71
2024/02/02 00:24:26;;;;;;;;;;;;;;;11.38;47.46;101870.16;4933328;28;99709;-71
2024/02/02 00:26:52;;;;;;;;;;;;;;;11.38;47.51;101875.56;4923800;28;98605;-65
2024/02/02 00:29:18;;;;;;;;;;;;;;;11.37;47.36;101879.31;4917050;28;98193;-71
2024/02/02 00:31:44;;;;;;;;;;;;;;;11.37;47.59;101873.91;4923758;28;99634;-71
2024/02/02 00:34:10;;;;;;;;;;;;;;;11.36;47.36;101872.28;4921309;28;101262;-65
2024/02/02 00:36:36;;;;;;;;;;;;;;;11.34;47.46;101866.28;4947220;28;99464;-65
2024/02/02 00:39:02;;;;;;;;;;;;;;;11.34;47.40;101874.38;4934223;28;116018;-65
2024/02/02 00:41:28;;;;;;;;;;;;;;;11.34;47.38;101870.88;4948418;28;98339;-71
2024/02/02 00:43:56;;;;;;;;;;;;;;;11.34;47.37;101884.38;4953102;28;98915;-69
2024/02/02 00:46:22;;;;;;;;;;;;;;;11.33;47.41;101885.44;4938277;28;101064;-71
2024/02/02 00:48:48;;;;;;;;;;;;;;;11.33;47.52;101888.13;4923603;28;98099;-66
2024/02/02 00:51:14;;;;;;;;;;;;;;;11.33;47.36;101890.84;4933861;28;98341;-65
2024/02/02 00:53:43;;;;;;;;;;;;;;;11.31;47.34;101888.34;4933725;28;129776;-65
2024/02/02 00:56:09;;;;;;;;;;;;;;;11.31;47.40;101880.25;4932782;28;98389;-71
2024/02/02 00:58:35;;;;;;;;;;;;;;;11.31;47.41;101880.25;4935751;28;98306;-71
2024/02/02 01:01:01;;;;;;;;;;;;;;;11.29;47.38;101879.69;4921531;28;98355;-71
2024/02/02 01:03:28;;;;;;;;;;;;;;;11.29;47.46;101869.72;4947949;28;112618;-71
2024/02/02 01:05:54;;;;;;;;;;;;;;;11.28;47.23;101872.66;4931762;28;99568;-65
2024/02/02 01:08:21;;;;;;;;;;;;;;;11.28;47.20;101875.34;4949493;28;98809;-71
2024/02/02 01:10:47;;;;;;;;;;;;;;;11.28;47.30;101864.56;4935816;28;99863;-71
2024/02/02 01:13:13;;;;;;;;;;;;;;;11.28;47.47;101859.16;4922149;28;98160;-71
2024/02/02 01:15:39;;;;;;;;;;;;;;;11.28;47.20;101869.97;4921459;28;98354;-66
2024/02/02 01:18:07;;;;;;;;;;;;;;;11.27;47.46;101868.28;4938288;28;98588;-65
2024/02/02 01:20:34;;;;;;;;;;;;;;;11.27;47.41;101860.19;4938517;28;98009;-71
2024/02/02 01:23:00;;;;;;;;;;;;;;;11.26;47.24;101866.66;4953140;28;98516;-71
2024/02/02 01:25:29;;;;;;;;;;;;;;;11.26;47.36;101866.66;4958697;28;99214;-65
2024/02/02 01:27:56;;;;;;;;;;;;;;;11.25;47.16;101865.03;4938119;28;99518;-71
2024/02/02 01:30:23;;;;;;;;;;;;;;;11.24;47.38;101869.63;4934818;28;98279;-71
2024/02/02 01:32:49;;;;;;;;;;;;;;;11.25;47.26;101865.03;4927034;28;99613;-65
2024/02/02 01:35:18;;;;;;;;;;;;;;;11.24;47.39;101863.41;4935516;28;98192;-71
2024/02/02 01:37:44;;;;;;;;;;;;;;;11.24;47.33;101858.81;4927701;28;99856;-71
2024/02/02 01:40:13;;;;;;;;;;;;;;;11.24;47.29;101864.22;4925930;28;101884;-65
2024/02/02 01:42:40;;;;;;;;;;;;;;;11.23;47.41;101865.25;4927942;28;99313;-65
2024/02/02 01:45:06;;;;;;;;;;;;;;;11.24;47.33;101875.00;4937384;28;98112;-65
2024/02/02 01:47:32;;;;;;;;;;;;;;;11.24;47.47;101876.91;4926095;28;98577;-65
2024/02/02 01:49:58;;;;;;;;;;;;;;;11.24;47.27;101880.41;4950801;28;100468;-65
2024/02/02 01:52:24;;;;;;;;;;;;;;;11.23;47.17;101876.03;4924066;28;126737;-71
2024/02/02 01:54:50;;;;;;;;;;;;;;;11.24;47.04;101874.19;4925923;28;127860;-65
2024/02/02 01:57:16;;;;;;;;;;;;;;;11.23;47.12;101876.03;4957020;28;98405;-71
2024/02/02 01:59:42;;;;;;;;;;;;;;;11.23;47.38;101876.03;4941079;28;107602;-65
2024/02/02 02:02:08;;;;;;;;;;;;;;;11.22;47.40;101874.41;4934292;28;110353;-65
2024/02/02 02:04:34;;;;;;;;;;;;;;;11.22;47.32;101865.50;4940392;28;98681;-65
2024/02/02 02:07:02;;;;;;;;;;;;;;;11.22;47.43;101870.91;4938295;28;99995;-71
2024/02/02 02:09:28;;;;;;;;;;;;;;;11.22;47.36;101869.00;4920688;28;98177;-65
2024/02/02 02:11:54;;;;;;;;;;;;;;;11.21;47.26;101875.47;4936758;28;98124;-71
2024/02/02 02:14:20;;;;;;;;;;;;;;;11.22;47.18;101870.91;4934240;28;98126;-65
2024/02/02 02:16:50;;;;;;;;;;;;;;;11.21;47.35;101867.38;4953342;28;98067;-71
2024/02/02 02:19:16;;;;;;;;;;;;;;;11.21;47.41;101870.09;4938566;27;98192;-71
2024/02/02 02:21:42;;;;;;;;;;;;;;;11.21;47.53;101861.97;4935741;28;98046;-71
2024/02/02 02:24:11;;;;;;;;;;;;;;;11.21;47.33;101861.97;4920410;28;98467;-65
2024/02/02 02:26:37;;;;;;;;;;;;;;;11.21;47.44;101861.16;4926116;28;98287;-71
2024/02/02 02:29:03;;;;;;;;;;;;;;;11.21;47.25;101861.16;4935062;28;114591;-71
2024/02/02 02:31:29;;;;;;;;;;;;;;;11.20;47.34;101862.19;4923944;28;99778;-71
2024/02/02 02:33:55;;;;;;;;;;;;;;;11.20;47.33;101867.59;4937988;28;101289;-65
2024/02/02 02:36:21;;;;;;;;;;;;;;;11.20;47.54;101856.81;4920771;28;99960;-65
2024/02/02 02:38:47;;;;;;;;;;;;;;;11.20;47.24;101868.44;4965221;28;99626;-66
2024/02/02 02:41:13;;;;;;;;;;;;;;;11.20;47.19;101867.59;4935641;28;100541;-65
2024/02/02 02:43:39;;;;;;;;;;;;;;;11.19;47.31;101864.09;4935676;28;98060;-71
2024/02/02 02:46:06;;;;;;;;;;;;;;;11.19;47.33;101874.88;4957300;28;98409;-65
2024/02/02 02:48:33;;;;;;;;;;;;;;;11.18;47.32;101867.03;4955254;28;98148;-65
2024/02/02 02:50:58;;;;;;;;;;;;;;;11.19;47.27;101865.97;4940943;28;99654;-65
2024/02/02 02:53:25;;;;;;;;;;;;;;;11.18;47.29;101867.84;4936495;28;118855;-65
2024/02/02 02:55:51;;;;;;;;;;;;;;;11.19;47.35;101868.66;4951810;28;98288;-65
2024/02/02 02:58:17;;;;;;;;;;;;;;;11.18;47.13;101870.56;4924173;28;98208;-65
2024/02/02 03:00:46;;;;;;;;;;;;;;;11.18;47.34;101867.84;4923999;28;98308;-65
2024/02/02 03:03:12;;;;;;;;;;;;;;;11.19;47.46;101863.28;4925102;28;98355;-65
2024/02/02 03:05:39;;;;;;;;;;;;;;;11.18;47.19;101859.75;4951249;28;98271;-65
2024/02/02 03:08:06;;;;;;;;;;;;;;;11.18;47.24;101864.34;4934227;28;98874;-71
2024/02/02 03:10:32;;;;;;;;;;;;;;;11.17;47.09;101862.69;4924307;28;98306;-65
2024/02/02 03:12:58;;;;;;;;;;;;;;;11.18;47.43;101864.34;4920499;28;98351;-65
2024/02/02 03:15:25;;;;;;;;;;;;;;;11.17;47.48;101857.31;4928453;28;98602;-71
2024/02/02 03:17:51;;;;;;;;;;;;;;;11.17;47.28;101855.41;4912761;28;99468;-70
2024/02/02 03:20:17;;;;;;;;;;;;;;;11.17;47.29;101849.22;4896882;28;101009;-65
2024/02/02 03:22:43;;;;;;;;;;;;;;;11.17;47.28;101857.31;4913367;28;98221;-70
2024/02/02 03:25:11;;;;;;;;;;;;;;;11.17;47.40;101863.53;4916346;28;98167;-65
2024/02/02 03:27:38;;;;;;;;;;;;;;;11.17;47.15;101844.63;4912929;28;98735;-64
2024/02/02 03:30:05;;;;;;;;;;;;;;;11.17;47.30;101849.22;4915804;28;99141;-65
2024/02/02 03:32:31;;;;;;;;;;;;;;;11.17;47.27;101851.91;4915141;28;98296;-70
2024/02/02 03:34:57;;;;;;;;;;;;;;;11.16;47.12;101850.25;4912468;28;98043;-70
2024/02/02 03:37:23;;;;;;;;;;;;;;;11.16;47.19;101856.50;4911273;28;98233;-64
2024/02/02 03:39:49;;;;;;;;;;;;;;;11.16;47.44;101859.19;4900977;28;98122;-65
2024/02/02 03:42:15;;;;;;;;;;;;;;;11.16;47.24;101861.88;4916919;28;98493;-70
2024/02/02 03:44:41;;;;;;;;;;;;;;;11.15;47.49;101864.81;4915574;28;98495;-64
2024/02/02 03:47:08;;;;;;;;;;;;;;;11.15;47.16;101868.31;4928165;28;99600;-71
2024/02/02 03:49:34;;;;;;;;;;;;;;;11.14;47.29;101869.38;4911514;28;98306;-70
2024/02/02 03:52:07;;;;;;;;;;;;;;;11.15;47.31;101872.91;4911695;28;98273;-70
2024/02/02 03:54:33;;;;;;;;;;;;;;;11.15;47.14;101886.41;4911589;28;98031;-70
2024/02/02 03:57:01;;;;;;;;;;;;;;;11.14;47.19;101880.19;4941178;28;98348;-64
2024/02/02 03:59:27;;;;;;;;;;;;;;;11.15;47.40;101879.13;4899500;28;98294;-64
2024/02/02 04:01:53;;;;;;;;;;;;;;;11.13;47.09;101875.84;4910958;28;98138;-70
2024/02/02 04:04:19;;;;;;;;;;;;;;;11.14;47.67;101876.66;4900634;28;99795;-65
2024/02/02 04:06:45;;;;;;;;;;;;;;;11.12;47.53;101866.13;4910854;28;98552;-71
2024/02/02 04:09:14;;;;;;;;;;;;;;;11.13;47.34;101878.53;4912413;28;98894;-70
2024/02/02 04:11:40;;;;;;;;;;;;;;;11.13;47.28;101873.16;4915810;28;128304;-70
2024/02/02 04:14:06;;;;;;;;;;;;;;;11.14;47.33;101882.06;4899176;28;98225;-64
2024/02/02 04:16:32;;;;;;;;;;;;;;;11.14;47.46;101879.38;4930699;28;98167;-71
2024/02/02 04:18:59;;;;;;;;;;;;;;;11.13;47.30;101883.94;4934267;28;98132;-64
2024/02/02 04:21:25;;;;;;;;;;;;;;;11.12;47.38;101884.16;4933890;28;98083;-65
2024/02/02 04:23:51;;;;;;;;;;;;;;;11.13;47.53;101880.44;4938057;28;98163;-65
2024/02/02 04:26:17;;;;;;;;;;;;;;;11.13;47.48;101878.53;4937413;27;101051;-70
2024/02/02 04:28:43;;;;;;;;;;;;;;;11.13;47.36;101880.44;4939177;28;98228;-70
2024/02/02 04:31:09;;;;;;;;;;;;;;;11.12;47.55;101879.59;4933932;28;98491;-65
2024/02/02 04:33:35;;;;;;;;;;;;;;;11.12;47.34;101887.72;4936267;28;105611;-64
2024/02/02 04:36:01;;;;;;;;;;;;;;;11.12;47.09;101885.00;4932703;28;99515;-71
2024/02/02 04:38:27;;;;;;;;;;;;;;;11.12;47.41;101876.06;4938340;28;97964;-65
2024/02/02 04:40:53;;;;;;;;;;;;;;;11.12;47.29;101878.75;4922577;28;98328;-70
2024/02/02 04:43:19;;;;;;;;;;;;;;;11.11;47.37;101877.94;4922710;28;99529;-65
2024/02/02 04:45:46;;;;;;;;;;;;;;;11.12;47.32;101879.59;4932538;28;127715;-71
2024/02/02 04:48:12;;;;;;;;;;;;;;;11.12;47.28;101871.50;4936511;28;98558;-65
2024/02/02 04:50:38;;;;;;;;;;;;;;;11.13;47.33;101872.34;4937906;28;98110;-65
2024/02/02 04:53:04;;;;;;;;;;;;;;;11.12;47.20;101874.22;4952290;28;98126;-65
2024/02/02 04:55:30;;;;;;;;;;;;;;;11.12;47.48;101867.97;4936799;28;98198;-71
2024/02/02 04:57:56;;;;;;;;;;;;;;;11.12;47.55;101876.06;4926535;28;98534;-71
2024/02/02 05:00:22;;;;;;;;;;;;;;;11.12;47.35;101876.06;4926995;28;99771;-70
2024/02/02 05:02:48;;;;;;;;;;;;;;;11.12;47.18;101881.47;4925977;28;97968;-65
2024/02/02 05:05:14;;;;;;;;;;;;;;;11.12;47.12;101882.31;4943242;28;98632;-65
2024/02/02 05:07:40;;;;;;;;;;;;;;;11.12;47.33;101881.47;4944604;28;98223;-72
2024/02/02 05:10:07;;;;;;;;;;;;;;;11.12;47.41;101881.47;4937372;28;98873;-70
2024/02/02 05:12:34;;;;;;;;;;;;;;;11.12;47.46;101870.66;4941724;28;99802;-65
2024/02/02 05:15:00;;;;;;;;;;;;;;;11.10;47.28;101873.63;4925161;28;98146;-65
2024/02/02 05:17:27;;;;;;;;;;;;;;;11.11;47.18;101866.34;4954633;28;100233;-65
2024/02/02 05:19:53;;;;;;;;;;;;;;;11.10;47.12;101868.22;4960152;28;104633;-65
2024/02/02 05:22:19;;;;;;;;;;;;;;;11.10;47.36;101862.81;4923853;28;100073;-65
2024/02/02 05:24:46;;;;;;;;;;;;;;;11.11;47.11;101866.34;4953491;28;100136;-70
2024/02/02 05:27:12;;;;;;;;;;;;;;;11.10;47.35;101859.31;4935927;28;97967;-65
2024/02/02 05:29:38;;;;;;;;;;;;;;;11.09;47.45;101855.78;4941638;28;98996;-65
2024/02/02 05:32:05;;;;;;;;;;;;;;;11.10;47.50;101856.59;4939305;28;98543;-70
2024/02/02 05:34:31;;;;;;;;;;;;;;;11.09;47.06;101853.09;4934622;28;98803;-70
2024/02/02 05:36:57;;;;;;;;;;;;;;;11.09;47.57;101854.97;4936505;28;129190;-65
2024/02/02 05:39:23;;;;;;;;;;;;;;;11.08;47.52;101856.81;4936035;28;98644;-70
2024/02/02 05:41:51;;;;;;;;;;;;;;;11.07;47.38;101853.31;4949975;28;98299;-65
2024/02/02 05:44:17;;;;;;;;;;;;;;;11.07;47.44;101847.09;4921842;28;98172;-69
2024/02/02 05:46:43;;;;;;;;;;;;;;;11.07;47.38;101849.78;4937104;28;107811;-71
2024/02/02 05:49:09;;;;;;;;;;;;;;;11.06;47.42;101854.38;4940271;28;127945;-65
2024/02/02 05:51:35;;;;;;;;;;;;;;;11.05;47.41;101850.03;4937587;28;98339;-65
2024/02/02 05:54:01;;;;;;;;;;;;;;;11.04;47.33;101844.88;4952709;28;128394;-70
2024/02/02 05:56:27;;;;;;;;;;;;;;;11.05;47.55;101844.66;4935544;28;98099;-70
2024/02/02 05:58:53;;;;;;;;;;;;;;;11.03;47.13;101832.44;4951741;28;97948;-65
2024/02/02 06:01:19;;;;;;;;;;;;;;;11.03;47.43;101832.44;4955208;27;100929;-71
2024/02/02 06:03:45;;;;;;;;;;;;;;;11.01;47.58;101827.28;4960475;27;114051;-65
2024/02/02 06:06:11;;;;;;;;;;;;;;;11.01;47.51;101821.91;4974862;27;100145;-71
2024/02/02 06:08:37;;;;;;;;;;;;;;;11.01;47.55;101835.38;4959004;27;98149;-71
2024/02/02 06:11:04;;;;;;;;;;;;;;;11.00;47.51;101824.81;4954483;27;98655;-65
2024/02/02 06:13:30;;;;;;;;;;;;;;;10.99;47.09;101833.97;4946152;27;98413;-65
2024/02/02 06:15:56;;;;;;;;;;;;;;;10.99;47.45;101828.56;4975322;27;110199;-65
2024/02/02 06:18:22;;;;;;;;;;;;;;;10.99;47.57;101831.28;4957613;27;99641;-65
2024/02/02 06:20:48;;;;;;;;;;;;;;;10.98;47.34;101822.34;4944830;27;98280;-65
2024/02/02 06:23:14;;;;;;;;;;;;;;;10.97;47.12;101823.44;4955943;27;99041;-71
2024/02/02 06:25:40;;;;;;;;;;;;;;;10.96;47.07;101812.84;4972892;27;98183;-65
2024/02/02 06:28:08;;;;;;;;;;;;;;;10.96;47.39;101827.16;4952371;27;98298;-71
2024/02/02 06:30:34;;;;;;;;;;;;;;;10.95;47.45;101824.72;4945687;27;99845;-71
2024/02/02 06:33:00;;;;;;;;;;;;;;;10.95;47.21;101825.53;4971027;27;123408;-65
2024/02/02 06:35:27;;;;;;;;;;;;;;;10.96;47.42;101829.03;4970982;27;100040;-65
2024/02/02 06:37:53;;;;;;;;;;;;;;;10.95;47.54;101828.22;4973039;27;98299;-65
2024/02/02 06:40:19;;;;;;;;;;;;;;;10.95;47.40;101833.63;4955832;27;98238;-65
2024/02/02 06:42:45;;;;;;;;;;;;;;;10.94;47.45;101823.91;4989927;27;99635;-65
2024/02/02 06:45:12;;;;;;;;;;;;;;;10.95;47.43;101822.00;4989044;27;98115;-65
2024/02/02 06:47:38;;;;;;;;;;;;;;;10.97;47.30;101836.09;4955388;27;98191;-70
2024/02/02 06:50:05;;;;;;;;;;;;;;;10.95;47.54;101830.94;4955538;27;98826;-70
2024/02/02 06:52:31;;;;;;;;;;;;;;;10.97;47.15;101830.72;4943752;27;97948;-65
2024/02/02 06:54:57;;;;;;;;;;;;;;;11.00;47.42;101841.84;4954999;27;99478;-70
2024/02/02 06:57:25;;;;;;;;;;;;;;;11.02;47.23;101849.69;4974392;27;98115;-71
2024/02/02 06:59:51;;;;;;;;;;;;;;;11.03;47.42;101851.31;4946082;27;98218;-65
2024/02/02 07:02:19;;;;;;;;;;;;;;;11.05;47.46;101851.94;4943403;27;98105;-65
2024/02/02 07:04:45;;;;;;;;;;;;;;;11.05;47.20;101839.25;4959605;27;98313;-70
2024/02/02 07:07:11;;;;;;;;;;;;;;;11.07;47.37;101844.41;4977413;27;98899;-71
2024/02/02 07:09:38;;;;;;;;;;;;;;;11.09;47.64;101847.69;4944769;27;98364;-67
2024/02/02 07:12:05;;;;;;;;;;;;;;;11.10;47.28;101846.63;4940334;27;98754;-70
2024/02/02 07:14:44;;;;;;;;;;;;;;;11.13;47.26;101846.16;4955966;27;98616;-65
2024/02/02 07:17:22;;;;;;;;;;;;;;;11.15;47.20;101841.31;4969835;27;98362;-70
2024/02/02 07:19:48;;;;;;;;;;;;;;;11.19;47.21;101844.38;4955230;27;98146;-65
2024/02/02 07:22:40;;;;;;;;;;;;;;;11.23;47.12;101848.25;4969864;27;101649;-70
2024/02/02 07:25:07;;;;;;;;;;;;;;;11.26;47.14;101843.19;4962330;27;98367;-71
2024/02/02 07:27:40;;;;;;;;;;;;;;;11.31;47.11;101850.56;4944222;27;97960;-71
2024/02/02 07:30:12;;;;;;;;;;;;;;;11.38;47.07;101848.56;4956263;27;100468;-71
2024/02/02 07:32:39;;;;;;;;;;;;;;;11.43;47.10;101843.25;4951383;27;99462;-65
2024/02/02 07:35:25;;;;;;;;;;;;;;;11.47;47.23;101849.81;4954495;27;103207;-66
2024/02/02 07:37:51;;;;;;;;;;;;;;;11.46;47.09;101845.47;4957601;27;98088;-65
2024/02/02 07:40:51;;;;;;;;;;;;;;;11.49;46.91;101838.78;4954393;27;97936;-65
2024/02/02 07:43:17;;;;;;;;;;;;;;;11.52;46.67;101832.91;4927023;27;98399;-65
2024/02/02 07:45:43;;;;;;;;;;;;;;;11.54;46.91;101831.59;4958739;27;114435;-65
2024/02/02 07:48:09;;;;;;;;;;;;;;;11.63;46.98;101826.66;4941836;27;105494;-65
2024/02/02 07:50:35;;;;;;;;;;;;;;;11.75;46.74;101823.88;4965515;27;98341;-65
2024/02/02 07:53:01;;;;;;;;;;;;;;;11.91;46.70;101827.72;4936289;27;117263;-65
2024/02/02 07:55:27;;;;;;;;;;;;;;;12.09;46.67;101822.06;4958289;27;128480;-71
2024/02/02 07:57:53;;;;;;;;;;;;;;;12.24;46.33;101811.53;4956381;27;99359;-65
2024/02/02 08:00:19;;;;;;;;;;;;;;;12.36;46.52;101807.91;4972438;27;99435;-71
2024/02/02 08:02:45;;;;;;;;;;;;;;;12.45;46.54;101809.94;4953703;27;98618;-71
2024/02/02 08:05:12;;;;;;;;;;;;;;;12.59;46.27;101815.03;4957968;27;128781;-71
2024/02/02 08:07:38;;;;;;;;;;;;;;;12.67;46.54;101807.31;4977510;27;98271;-71
2024/02/02 08:10:05;;;;;;;;;;;;;;;12.74;46.30;101807.13;4935558;27;98179;-71
2024/02/02 08:12:31;;;;;;;;;;;;;;;12.86;46.14;101807.03;4952707;27;98037;-71
2024/02/02 08:14:57;;;;;;;;;;;;;;;12.95;46.21;101798.22;4944746;27;111086;-71
2024/02/02 08:17:23;;;;;;;;;;;;;;;13.08;46.30;101791.59;4985866;27;98034;-71
2024/02/02 08:19:49;;;;;;;;;;;;;;;13.19;46.26;101789.84;4958070;27;98498;-65
2024/02/02 08:22:15;;;;;;;;;;;;;;;13.34;46.02;101778.41;4972261;27;98392;-71
2024/02/02 08:24:41;;;;;;;;;;;;;;;13.47;46.01;101775.28;4961154;27;98255;-71
2024/02/02 08:27:07;;;;;;;;;;;;;;;13.62;46.17;101770.03;4975159;27;98482;-71
2024/02/02 08:29:33;;;;;;;;;;;;;;;13.83;45.75;101770.22;4947147;27;98198;-71
2024/02/02 08:32:00;;;;;;;;;;;;;;;14.05;45.66;101753.88;4958958;27;105875;-71
2024/02/02 08:34:26;;;;;;;;;;;;;;;14.21;45.92;101755.63;4982597;27;98488;-66
2024/02/02 08:36:52;;;;;;;;;;;;;;;14.35;45.87;101758.69;4985554;27;98086;-71
2024/02/02 08:39:19;;;;;;;;;;;;;;;14.57;45.34;101748.53;4946926;27;98023;-65
2024/02/02 08:41:45;;;;;;;;;;;;;;;14.88;45.71;101743.25;4958076;27;98382;-71
2024/02/02 08:44:27;;;;;;;;;;;;;;;15.27;44.77;101738.22;4948828;27;98904;-71
2024/02/02 08:46:53;;;;;;;;;;;;;;;16.50;44.10;101727.34;4962940;27;97956;-72
2024/02/02 08:49:43;;;;;;;;;;;;;;;17.03;44.15;101734.00;4959741;27;99755;-71
2024/02/02 08:52:17;;;;;;;;;;;;;;;16.71;44.73;101731.66;4966640;27;98330;-71
2024/02/02 08:54:47;;;;;;;;;;;;;;;16.66;45.13;101728.94;4959862;27;99551;-66
2024/02/02 08:57:35;;;;;;;;;;;;;;;16.30;45.65;101737.19;4949310;27;99229;-66
2024/02/02 09:00:14;;;;;;;;;;;;;;;15.96;45.92;101745.16;4983519;27;98272;-66
2024/02/02 09:02:55;;;;;;;;;;;;;;;15.67;46.02;101739.41;4979406;27;98474;-73
2024/02/02 09:05:25;;;;;;;;;;;;;;;15.42;46.27;101734.75;4978367;27;98594;-66
2024/02/02 09:07:57;;;;;;;;;;;;;;;15.22;46.39;101739.03;4965352;27;98665;-71
2024/02/02 09:10:29;;;;;;;;;;;;;;;15.06;46.68;101737.38;4994178;27;98337;-66
2024/02/02 09:13:00;;;;;;;;;;;;;;;14.92;46.52;101730.78;4994258;27;98489;-71
2024/02/02 09:15:26;;;;;;;;;;;;;;;14.79;46.58;101723.16;4946273;27;99637;-71
2024/02/02 09:17:52;;;;;;;;;;;;;;;14.72;46.66;101728.81;4949576;27;119762;-65
2024/02/02 09:20:40;;;;;;;;;;;;;;;14.61;46.45;101730.66;4960318;27;98445;-65
2024/02/02 09:23:07;;;;;;;;;;;;;;;14.45;46.81;101728.91;4964569;27;98325;-65
2024/02/02 09:25:34;;;;;;;;;;;;;;;14.32;46.87;101718.53;4982653;27;98230;-66
2024/02/02 09:28:00;;;;;;;;;;;;;;;14.24;46.67;101720.66;4959232;27;98094;-65
2024/02/02 09:30:26;;;;;;;;;;;;;;;14.27;47.01;101722.03;4943062;27;98875;-65
2024/02/02 09:32:52;;;;;;;;;;;;;;;14.38;46.66;101709.34;4948849;27;98236;-65
2024/02/02 09:35:46;;;;;;;;;;;;;;;14.45;46.56;101712.63;4955216;27;104121;-71
2024/02/02 09:38:12;;;;;;;;;;;;;;;14.40;46.49;101710.72;4959583;27;99813;-69
2024/02/02 09:40:54;;;;;;;;;;;;;;;14.37;46.46;101716.66;4960120;27;98402;-66
2024/02/02 09:43:22;;;;;;;;;;;;;;;14.41;46.39;101709.63;4962215;27;99986;-65
2024/02/02 09:46:17;;;;;;;;;;;;;;;14.42;46.36;101710.44;4971031;27;98166;-71
2024/02/02 09:49:06;;;;;;;;;;;;;;;14.37;46.60;101702.28;4942982;27;98536;-66
2024/02/02 09:51:51;;;;;;;;;;;;;;;14.34;46.79;101700.09;4975891;27;98456;-71
2024/02/02 09:54:40;;;;;;;;;;;;;;;14.33;46.73;101715.56;4971386;27;101173;-71
2024/02/02 09:57:28;;;;;;;;;;;;;;;14.30;46.73;101712.53;4976613;27;98398;-66
2024/02/02 10:00:26;;;;;;;;;;;;;;;14.30;46.51;101701.69;4963350;27;99616;-66
2024/02/02 10:03:20;;;;;;;;;;;;;;;14.38;46.48;101703.91;4966445;27;97926;-71
2024/02/02 10:06:09;;;;;;;;;;;;;;;14.37;46.25;101699.56;4978554;27;98603;-65
2024/02/02 10:08:52;;;;;;;;;;;;;;;14.25;46.72;101694.34;4963274;27;98192;-65
2024/02/02 10:11:42;;;;;;;;;;;;;;;14.27;46.78;101684.06;4961515;27;98254;-71
2024/02/02 10:14:50;;;;;;;;;;;;;;;14.26;46.40;101687.84;4988550;27;98394;-71
2024/02/02 10:17:26;;;;;;;;;;;;;;;14.20;46.52;101684.28;4916197;28;98727;-71
2024/02/02 10:20:09;;;;;;;;;;;;;;;14.13;46.71;101683.69;4931213;28;98509;-70
2024/02/02 10:22:53;;;;;;;;;;;;;;;14.05;47.09;101678.78;4957668;27;98015;-71
2024/02/02 10:25:31;;;;;;;;;;;;;;;14.00;46.71;101676.03;4988603;27;99647;-65
2024/02/02 10:28:07;;;;;;;;;;;;;;;13.95;46.73;101689.53;4962883;27;99106;-65
2024/02/02 10:30:57;;;;;;;;;;;;;;;13.87;46.68;101680.03;4957368;27;98018;-71
2024/02/02 10:34:02;;;;;;;;;;;;;;;13.80;47.18;101654.22;4957965;27;98084;-66
2024/02/02 10:37:02;;;;;;;;;;;;;;;13.86;46.73;101639.59;4963920;27;98092;-65
2024/02/02 10:39:46;;;;;;;;;;;;;;;13.89;46.95;101642.63;4961380;27;98119;-71
2024/02/02 10:42:29;;;;;;;;;;;;;;;13.91;46.63;101640.47;4960612;27;98359;-66
2024/02/02 10:45:18;;;;;;;;;;;;;;;14.00;46.68;101629.94;4958554;27;98048;-65
2024/02/02 10:48:18;;;;;;;;;;;;;;;14.42;45.98;101613.63;4960922;27;99415;-66
2024/02/02 10:51:15;;;;;;;;;;;;;;;14.35;46.12;101628.50;4989573;27;99492;-66
2024/02/02 10:53:48;;;;;;;;;;;;;;;14.25;46.69;101631.97;4975340;27;106372;-65
2024/02/02 10:56:38;;;;;;;;;;;;;;;14.24;46.42;101646.63;4959199;27;98494;-65
2024/02/02 10:59:22;;;;;;;;;;;;;;;14.18;46.70;101653.91;4971152;27;98254;-65
2024/02/02 11:02:02;;;;;;;;;;;;;;;14.16;46.47;101641.69;4973559;27;114279;-65
2024/02/02 11:04:55;;;;;;;;;;;;;;;14.17;46.51;101649.56;4960241;27;99822;-65
2024/02/02 11:07:32;;;;;;;;;;;;;;;14.12;46.86;101641.41;4970040;27;98413;-71
2024/02/02 11:10:08;;;;;;;;;;;;;;;14.08;46.79;101659.28;4972074;27;98254;-71
2024/02/02 11:13:08;;;;;;;;;;;;;;;14.06;46.92;101649.75;4970839;27;98971;-71
2024/02/02 11:15:59;;;;;;;;;;;;;;;14.04;46.50;101625.63;4951033;28;98130;-71
2024/02/02 11:18:42;;;;;;;;;;;;;;;14.05;46.78;101610.19;4957077;27;98298;-65
2024/02/02 11:21:38;;;;;;;;;;;;;;;14.17;46.53;101602.66;4957987;27;98544;-70
2024/02/02 11:24:40;;;;;;;;;;;;;;;14.49;46.04;101584.38;4940406;27;97940;-71
2024/02/02 11:27:19;;;;;;;;;;;;;;;14.63;45.97;101587.41;4953584;27;99738;-65
2024/02/02 11:30:01;;;;;;;;;;;;;;;14.56;46.33;101583.31;4952629;27;98076;-71
2024/02/02 11:32:46;;;;;;;;;;;;;;;14.50;46.44;101568.91;4936573;28;98257;-65
2024/02/02 11:35:43;;;;;;;;;;;;;;;14.51;46.47;101569.75;4957202;27;98169;-66
2024/02/02 11:38:50;;;;;;;;;;;;;;;14.51;46.32;101558.88;4969074;27;99825;-66
2024/02/02 11:41:21;;;;;;;;;;;;;;;14.51;46.60;101551.56;4955269;27;99429;-72
2024/02/02 11:43:47;;;;;;;;;;;;;;;14.54;46.34;101542.91;4938777;27;98016;-66
2024/02/02 11:46:14;;;;;;;;;;;;;;;14.58;46.41;101537.72;4953544;27;98955;-65
2024/02/02 11:48:40;;;;;;;;;;;;;;;14.58;46.64;101540.44;4937476;27;98588;-65
2024/02/02 11:51:07;;;;;;;;;;;;;;;14.53;46.41;101538.53;4955504;28;98318;-66
2024/02/02 11:53:36;;;;;;;;;;;;;;;14.49;46.52;101538.25;4957376;28;98614;-71
2024/02/02 11:56:19;;;;;;;;;;;;;;;14.55;46.46;101524.72;4972038;27;107870;-71
2024/02/02 11:58:47;;;;;;;;;;;;;;;14.58;46.94;101519.56;4956518;27;98070;-71
2024/02/02 12:01:32;;;;;;;;;;;;;;;14.60;46.86;101522.81;4968546;27;100888;-72
2024/02/02 12:04:19;;;;;;;;;;;;;;;14.64;46.75;101510.34;4983609;27;99510;-72
2024/02/02 12:07:23;;;;;;;;;;;;;;;14.62;46.66;101504.38;4974994;27;99985;-72
2024/02/02 12:09:51;;;;;;;;;;;;;;;14.66;46.81;101499.25;4938748;27;100179;-71
2024/02/02 12:12:46;;;;;;;;;;;;;;;14.67;46.72;101490.00;4952170;27;98087;-66
2024/02/02 12:15:14;;;;;;;;;;;;;;;14.66;46.78;101482.97;4969985;27;98193;-72
2024/02/02 12:17:40;;;;;;;;;;;;;;;14.67;46.98;101476.44;4950492;27;98330;-66
2024/02/02 12:20:10;;;;;;;;;;;;;;;14.70;46.88;101475.91;4939735;28;100335;-72
2024/02/02 12:22:36;;;;;;;;;;;;;;;14.76;46.68;101466.66;4953176;27;98004;-71
2024/02/02 12:25:09;;;;;;;;;;;;;;;14.83;46.70;101466.41;4940937;27;99443;-66
2024/02/02 12:27:38;;;;;;;;;;;;;;;14.91;46.80;101461.22;4954912;28;98165;-67
2024/02/02 12:30:11;;;;;;;;;;;;;;;15.00;46.76;101457.97;4951878;28;99736;-66
2024/02/02 12:32:38;;;;;;;;;;;;;;;15.05;46.57;101447.94;4940449;27;97951;-72
2024/02/02 12:35:05;;;;;;;;;;;;;;;15.10;46.66;101434.34;4967655;27;98307;-71
2024/02/02 12:37:47;;;;;;;;;;;;;;;15.14;46.42;101430.00;4953406;27;98225;-71
2024/02/02 12:40:13;;;;;;;;;;;;;;;15.19;46.66;101426.44;4950016;27;98060;-66
2024/02/02 12:42:39;;;;;;;;;;;;;;;15.21;46.78;101421.56;4964838;27;104834;-66
2024/02/02 12:45:08;;;;;;;;;;;;;;;15.21;46.54;101406.09;4935696;28;98299;-72
2024/02/02 12:47:37;;;;;;;;;;;;;;;15.21;46.61;101403.38;4940326;28;108418;-72
2024/02/02 12:50:08;;;;;;;;;;;;;;;15.26;46.66;101407.16;4968270;27;103426;-66
2024/02/02 12:52:34;;;;;;;;;;;;;;;15.29;46.83;101393.00;4938918;27;99242;-66